Terminal Aerodrome Forecast
Issued by NWS Cleveland, OH

Home | Current Version | Previous Version | Graphics & Text | Print | Product List | Glossary On
Versions: 1 2 3 4 5 6 7 8 9 10 11 12 13 14
855
FTUS41 KCLE 241120
TAFCAK
TAF
KCAK 241120Z 2412/2512 18012KT P6SM OVC050 WS020/23045KT
      TEMPO 2412/2416 -SHRA
     FM241600 22015G25KT P6SM BKN060
     FM242100 23015G25KT P6SM OVC250
     FM250300 23012KT P6SM OVC025
     FM250900 22007KT P6SM OVC035=

USA.gov is the U.S. government's official web portal to all federal, state and local government web resources and services.